sensor_id;sensor_type;location;lat;lon;timestamp;P1;durP1;ratioP1;P2;durP2;ratioP2
9445;SDS011;4761;49.490;10.908;2022-10-17T00:00:23;5.43;;;4.87;;
9445;SDS011;4761;49.490;10.908;2022-10-17T00:02:49;5.13;;;4.03;;
9445;SDS011;4761;49.490;10.908;2022-10-17T00:05:14;4.90;;;4.07;;
9445;SDS011;4761;49.490;10.908;2022-10-17T00:07:40;5.80;;;4.40;;
9445;SDS011;4761;49.490;10.908;2022-10-17T00:10:06;6.83;;;4.00;;
9445;SDS011;4761;49.490;10.908;2022-10-17T00:12:32;6.10;;;3.70;;
9445;SDS011;4761;49.490;10.908;2022-10-17T00:14:58;4.70;;;4.20;;
9445;SDS011;4761;49.490;10.908;2022-10-17T00:17:24;4.90;;;3.80;;
9445;SDS011;4761;49.490;10.908;2022-10-17T00:19:49;6.53;;;3.80;;
9445;SDS011;4761;49.490;10.908;2022-10-17T00:22:15;4.97;;;3.67;;
9445;SDS011;4761;49.490;10.908;2022-10-17T00:24:40;5.43;;;3.53;;
9445;SDS011;4761;49.490;10.908;2022-10-17T00:27:06;6.70;;;4.00;;
9445;SDS011;4761;49.490;10.908;2022-10-17T00:29:32;4.70;;;4.03;;
9445;SDS011;4761;49.490;10.908;2022-10-17T00:31:57;7.43;;;4.27;;
9445;SDS011;4761;49.490;10.908;2022-10-17T00:34:23;5.77;;;5.17;;
9445;SDS011;4761;49.490;10.908;2022-10-17T00:36:49;6.57;;;5.47;;
9445;SDS011;4761;49.490;10.908;2022-10-17T00:39:14;5.90;;;5.03;;
9445;SDS011;4761;49.490;10.908;2022-10-17T00:41:40;7.07;;;4.93;;
9445;SDS011;4761;49.490;10.908;2022-10-17T00:44:53;6.00;;;4.77;;
9445;SDS011;4761;49.490;10.908;2022-10-17T00:46:54;5.83;;;4.33;;
9445;SDS011;4761;49.490;10.908;2022-10-17T00:49:31;5.70;;;4.03;;
9445;SDS011;4761;49.490;10.908;2022-10-17T00:52:01;5.63;;;3.83;;
9445;SDS011;4761;49.490;10.908;2022-10-17T00:54:39;5.27;;;3.50;;
9445;SDS011;4761;49.490;10.908;2022-10-17T00:57:08;7.50;;;3.60;;
9445;SDS011;4761;49.490;10.908;2022-10-17T00:59:33;6.27;;;3.53;;
9445;SDS011;4761;49.490;10.908;2022-10-17T01:02:07;6.63;;;3.53;;
9445;SDS011;4761;49.490;10.908;2022-10-17T01:04:38;6.23;;;3.57;;
9445;SDS011;4761;49.490;10.908;2022-10-17T01:07:06;6.83;;;3.57;;
9445;SDS011;4761;49.490;10.908;2022-10-17T01:09:32;5.53;;;3.17;;
9445;SDS011;4761;49.490;10.908;2022-10-17T01:31:42;4.20;;;2.40;;
9445;SDS011;4761;49.490;10.908;2022-10-17T01:37:02;2.70;;;2.10;;
9445;SDS011;4761;49.490;10.908;2022-10-17T01:39:43;2.73;;;2.37;;
9445;SDS011;4761;49.490;10.908;2022-10-17T01:44:51;4.27;;;2.57;;
9445;SDS011;4761;49.490;10.908;2022-10-17T01:47:20;4.23;;;2.27;;
9445;SDS011;4761;49.490;10.908;2022-10-17T01:49:50;2.30;;;2.00;;
9445;SDS011;4761;49.490;10.908;2022-10-17T01:52:22;2.73;;;2.10;;
9445;SDS011;4761;49.490;10.908;2022-10-17T01:54:52;3.27;;;2.10;;
9445;SDS011;4761;49.490;10.908;2022-10-17T01:57:29;3.03;;;2.00;;
9445;SDS011;4761;49.490;10.908;2022-10-17T01:59:58;3.80;;;2.10;;
9445;SDS011;4761;49.490;10.908;2022-10-17T02:02:26;5.93;;;2.53;;
9445;SDS011;4761;49.490;10.908;2022-10-17T02:04:52;3.23;;;2.20;;
9445;SDS011;4761;49.490;10.908;2022-10-17T02:07:20;3.07;;;1.90;;
9445;SDS011;4761;49.490;10.908;2022-10-17T02:09:46;3.40;;;2.13;;
9445;SDS011;4761;49.490;10.908;2022-10-17T02:17:51;4.03;;;2.03;;
9445;SDS011;4761;49.490;10.908;2022-10-17T02:20:36;7.93;;;2.17;;
9445;SDS011;4761;49.490;10.908;2022-10-17T02:23:22;4.53;;;2.30;;
9445;SDS011;4761;49.490;10.908;2022-10-17T02:25:50;5.23;;;2.00;;
9445;SDS011;4761;49.490;10.908;2022-10-17T02:28:19;4.73;;;1.83;;
9445;SDS011;4761;49.490;10.908;2022-10-17T02:30:57;3.90;;;2.00;;
9445;SDS011;4761;49.490;10.908;2022-10-17T02:33:30;3.60;;;2.03;;
9445;SDS011;4761;49.490;10.908;2022-10-17T02:36:20;4.50;;;2.10;;
9445;SDS011;4761;49.490;10.908;2022-10-17T02:38:48;5.23;;;1.80;;
9445;SDS011;4761;49.490;10.908;2022-10-17T02:41:16;5.77;;;2.00;;
9445;SDS011;4761;49.490;10.908;2022-10-17T02:43:43;3.00;;;1.67;;
9445;SDS011;4761;49.490;10.908;2022-10-17T02:46:15;3.13;;;2.03;;
9445;SDS011;4761;49.490;10.908;2022-10-17T02:48:57;2.67;;;1.83;;
9445;SDS011;4761;49.490;10.908;2022-10-17T02:51:32;3.43;;;1.93;;
9445;SDS011;4761;49.490;10.908;2022-10-17T02:57:08;2.50;;;1.87;;
9445;SDS011;4761;49.490;10.908;2022-10-17T02:59:38;4.13;;;1.90;;
9445;SDS011;4761;49.490;10.908;2022-10-17T03:02:06;3.27;;;1.80;;
9445;SDS011;4761;49.490;10.908;2022-10-17T03:04:32;3.60;;;2.10;;
9445;SDS011;4761;49.490;10.908;2022-10-17T03:06:58;2.37;;;1.47;;
9445;SDS011;4761;49.490;10.908;2022-10-17T03:09:24;2.07;;;1.70;;
9445;SDS011;4761;49.490;10.908;2022-10-17T03:11:49;5.30;;;1.80;;
9445;SDS011;4761;49.490;10.908;2022-10-17T03:14:15;3.20;;;1.60;;
9445;SDS011;4761;49.490;10.908;2022-10-17T03:16:40;2.10;;;1.60;;
9445;SDS011;4761;49.490;10.908;2022-10-17T03:19:06;2.30;;;1.90;;
9445;SDS011;4761;49.490;10.908;2022-10-17T03:21:32;1.97;;;1.40;;
9445;SDS011;4761;49.490;10.908;2022-10-17T03:23:57;3.83;;;1.80;;
9445;SDS011;4761;49.490;10.908;2022-10-17T03:26:23;8.03;;;1.37;;
9445;SDS011;4761;49.490;10.908;2022-10-17T03:28:49;3.83;;;1.60;;
9445;SDS011;4761;49.490;10.908;2022-10-17T03:31:15;3.77;;;1.60;;
9445;SDS011;4761;49.490;10.908;2022-10-17T03:33:41;5.77;;;1.97;;
9445;SDS011;4761;49.490;10.908;2022-10-17T03:36:07;7.67;;;1.57;;
9445;SDS011;4761;49.490;10.908;2022-10-17T03:38:37;2.30;;;1.40;;
9445;SDS011;4761;49.490;10.908;2022-10-17T03:41:03;1.97;;;1.50;;
9445;SDS011;4761;49.490;10.908;2022-10-17T03:43:29;4.30;;;1.73;;
9445;SDS011;4761;49.490;10.908;2022-10-17T03:45:56;3.30;;;1.53;;
9445;SDS011;4761;49.490;10.908;2022-10-17T03:48:22;6.10;;;1.60;;
9445;SDS011;4761;49.490;10.908;2022-10-17T03:50:48;3.63;;;1.40;;
9445;SDS011;4761;49.490;10.908;2022-10-17T03:53:14;4.10;;;1.37;;
9445;SDS011;4761;49.490;10.908;2022-10-17T03:55:39;3.43;;;1.40;;
9445;SDS011;4761;49.490;10.908;2022-10-17T03:58:05;1.83;;;1.57;;
9445;SDS011;4761;49.490;10.908;2022-10-17T04:00:31;1.83;;;1.40;;
9445;SDS011;4761;49.490;10.908;2022-10-17T04:02:56;2.07;;;1.30;;
9445;SDS011;4761;49.490;10.908;2022-10-17T04:05:22;1.70;;;1.60;;
9445;SDS011;4761;49.490;10.908;2022-10-17T04:07:48;2.30;;;1.50;;
9445;SDS011;4761;49.490;10.908;2022-10-17T04:10:13;2.57;;;1.57;;
9445;SDS011;4761;49.490;10.908;2022-10-17T04:12:39;1.53;;;1.43;;
9445;SDS011;4761;49.490;10.908;2022-10-17T04:15:04;2.50;;;1.60;;
9445;SDS011;4761;49.490;10.908;2022-10-17T04:17:30;1.67;;;1.57;;
9445;SDS011;4761;49.490;10.908;2022-10-17T04:19:56;2.80;;;1.40;;
9445;SDS011;4761;49.490;10.908;2022-10-17T04:22:22;2.50;;;1.50;;
9445;SDS011;4761;49.490;10.908;2022-10-17T04:24:48;1.60;;;1.50;;
9445;SDS011;4761;49.490;10.908;2022-10-17T04:27:13;2.53;;;1.60;;
9445;SDS011;4761;49.490;10.908;2022-10-17T04:29:39;3.20;;;2.07;;
9445;SDS011;4761;49.490;10.908;2022-10-17T04:32:04;3.50;;;1.90;;
9445;SDS011;4761;49.490;10.908;2022-10-17T04:34:30;3.57;;;1.67;;
9445;SDS011;4761;49.490;10.908;2022-10-17T04:36:56;2.00;;;1.80;;
9445;SDS011;4761;49.490;10.908;2022-10-17T04:39:21;4.43;;;2.13;;
9445;SDS011;4761;49.490;10.908;2022-10-17T04:41:47;3.23;;;2.20;;
9445;SDS011;4761;49.490;10.908;2022-10-17T04:44:12;2.47;;;2.23;;
9445;SDS011;4761;49.490;10.908;2022-10-17T04:46:38;5.40;;;2.20;;
9445;SDS011;4761;49.490;10.908;2022-10-17T04:49:04;3.03;;;2.03;;
9445;SDS011;4761;49.490;10.908;2022-10-17T04:51:29;4.03;;;1.93;;
9445;SDS011;4761;49.490;10.908;2022-10-17T04:53:55;2.60;;;2.10;;
9445;SDS011;4761;49.490;10.908;2022-10-17T04:56:21;2.07;;;1.87;;
9445;SDS011;4761;49.490;10.908;2022-10-17T04:58:47;3.83;;;1.97;;
9445;SDS011;4761;49.490;10.908;2022-10-17T05:01:14;1.83;;;1.73;;
9445;SDS011;4761;49.490;10.908;2022-10-17T05:03:45;2.20;;;2.00;;
9445;SDS011;4761;49.490;10.908;2022-10-17T05:06:12;3.00;;;2.40;;
9445;SDS011;4761;49.490;10.908;2022-10-17T05:08:40;4.23;;;2.37;;
9445;SDS011;4761;49.490;10.908;2022-10-17T05:11:14;3.13;;;2.40;;
9445;SDS011;4761;49.490;10.908;2022-10-17T05:13:45;2.27;;;2.07;;
9445;SDS011;4761;49.490;10.908;2022-10-17T05:16:14;2.60;;;2.40;;
9445;SDS011;4761;49.490;10.908;2022-10-17T05:18:39;4.10;;;2.20;;
9445;SDS011;4761;49.490;10.908;2022-10-17T05:21:05;3.07;;;2.10;;
9445;SDS011;4761;49.490;10.908;2022-10-17T05:23:30;2.40;;;2.03;;
9445;SDS011;4761;49.490;10.908;2022-10-17T05:25:56;2.70;;;2.33;;
9445;SDS011;4761;49.490;10.908;2022-10-17T05:28:22;4.10;;;1.90;;
9445;SDS011;4761;49.490;10.908;2022-10-17T05:30:48;2.20;;;2.00;;
9445;SDS011;4761;49.490;10.908;2022-10-17T05:33:14;2.20;;;2.00;;
9445;SDS011;4761;49.490;10.908;2022-10-17T05:35:40;3.43;;;2.10;;
9445;SDS011;4761;49.490;10.908;2022-10-17T05:38:05;3.87;;;2.10;;
9445;SDS011;4761;49.490;10.908;2022-10-17T05:40:31;2.73;;;2.10;;
9445;SDS011;4761;49.490;10.908;2022-10-17T05:42:57;5.33;;;2.03;;
9445;SDS011;4761;49.490;10.908;2022-10-17T05:45:22;2.07;;;1.70;;
9445;SDS011;4761;49.490;10.908;2022-10-17T05:47:48;5.33;;;2.00;;
9445;SDS011;4761;49.490;10.908;2022-10-17T05:50:13;4.27;;;2.33;;
9445;SDS011;4761;49.490;10.908;2022-10-17T05:52:39;8.97;;;2.00;;
9445;SDS011;4761;49.490;10.908;2022-10-17T05:55:05;5.67;;;1.97;;
9445;SDS011;4761;49.490;10.908;2022-10-17T05:57:31;4.57;;;1.90;;
9445;SDS011;4761;49.490;10.908;2022-10-17T05:59:56;8.03;;;2.30;;
9445;SDS011;4761;49.490;10.908;2022-10-17T06:02:22;2.27;;;1.87;;
9445;SDS011;4761;49.490;10.908;2022-10-17T06:04:47;3.73;;;2.03;;
9445;SDS011;4761;49.490;10.908;2022-10-17T06:07:14;2.80;;;2.03;;
9445;SDS011;4761;49.490;10.908;2022-10-17T06:09:40;3.53;;;2.53;;
9445;SDS011;4761;49.490;10.908;2022-10-17T06:12:06;6.10;;;2.23;;
9445;SDS011;4761;49.490;10.908;2022-10-17T06:14:32;2.33;;;1.70;;
9445;SDS011;4761;49.490;10.908;2022-10-17T06:16:58;1.30;;;1.20;;
9445;SDS011;4761;49.490;10.908;2022-10-17T06:19:24;1.03;;;1.03;;
9445;SDS011;4761;49.490;10.908;2022-10-17T06:21:50;1.00;;;1.00;;
9445;SDS011;4761;49.490;10.908;2022-10-17T06:24:15;1.30;;;1.20;;
9445;SDS011;4761;49.490;10.908;2022-10-17T06:26:41;1.57;;;1.47;;
9445;SDS011;4761;49.490;10.908;2022-10-17T06:29:06;1.30;;;1.20;;
9445;SDS011;4761;49.490;10.908;2022-10-17T06:31:32;1.47;;;1.37;;
9445;SDS011;4761;49.490;10.908;2022-10-17T06:33:58;1.63;;;1.53;;
9445;SDS011;4761;49.490;10.908;2022-10-17T06:36:23;1.90;;;1.80;;
9445;SDS011;4761;49.490;10.908;2022-10-17T06:38:49;1.87;;;1.77;;
9445;SDS011;4761;49.490;10.908;2022-10-17T06:41:15;1.60;;;1.50;;
9445;SDS011;4761;49.490;10.908;2022-10-17T06:43:43;1.37;;;1.27;;
9445;SDS011;4761;49.490;10.908;2022-10-17T06:46:10;1.37;;;1.27;;
9445;SDS011;4761;49.490;10.908;2022-10-17T06:48:37;1.60;;;1.50;;
9445;SDS011;4761;49.490;10.908;2022-10-17T06:51:03;1.70;;;1.60;;
9445;SDS011;4761;49.490;10.908;2022-10-17T06:53:31;1.60;;;1.50;;
9445;SDS011;4761;49.490;10.908;2022-10-17T06:55:58;1.40;;;1.30;;
9445;SDS011;4761;49.490;10.908;2022-10-17T06:58:32;1.77;;;1.30;;
9445;SDS011;4761;49.490;10.908;2022-10-17T07:01:00;1.67;;;1.30;;
9445;SDS011;4761;49.490;10.908;2022-10-17T07:03:36;1.53;;;1.43;;
9445;SDS011;4761;49.490;10.908;2022-10-17T07:06:03;1.50;;;1.40;;
9445;SDS011;4761;49.490;10.908;2022-10-17T07:08:28;2.60;;;1.40;;
9445;SDS011;4761;49.490;10.908;2022-10-17T07:10:54;1.70;;;1.60;;
9445;SDS011;4761;49.490;10.908;2022-10-17T07:13:21;1.65;;;1.55;;
9445;SDS011;4761;49.490;10.908;2022-10-17T07:15:47;1.90;;;1.80;;
9445;SDS011;4761;49.490;10.908;2022-10-17T07:18:12;1.85;;;1.60;;
9445;SDS011;4761;49.490;10.908;2022-10-17T07:20:38;1.42;;;1.33;;
9445;SDS011;4761;49.490;10.908;2022-10-17T07:23:04;1.75;;;1.60;;
9445;SDS011;4761;49.490;10.908;2022-10-17T07:25:30;1.98;;;1.70;;
9445;SDS011;4761;49.490;10.908;2022-10-17T07:27:56;1.95;;;1.70;;
9445;SDS011;4761;49.490;10.908;2022-10-17T07:30:22;1.95;;;1.85;;
9445;SDS011;4761;49.490;10.908;2022-10-17T07:32:48;2.13;;;1.92;;
9445;SDS011;4761;49.490;10.908;2022-10-17T07:35:16;1.80;;;1.70;;
9445;SDS011;4761;49.490;10.908;2022-10-17T07:37:42;1.88;;;1.77;;
9445;SDS011;4761;49.490;10.908;2022-10-17T07:40:08;1.70;;;1.60;;
9445;SDS011;4761;49.490;10.908;2022-10-17T07:42:37;1.80;;;1.70;;
9445;SDS011;4761;49.490;10.908;2022-10-17T07:45:03;2.72;;;1.60;;
9445;SDS011;4761;49.490;10.908;2022-10-17T07:47:29;1.83;;;1.70;;
9445;SDS011;4761;49.490;10.908;2022-10-17T07:49:57;2.50;;;1.65;;
9445;SDS011;4761;49.490;10.908;2022-10-17T07:52:22;1.70;;;1.60;;
9445;SDS011;4761;49.490;10.908;2022-10-17T07:54:48;1.93;;;1.80;;
9445;SDS011;4761;49.490;10.908;2022-10-17T07:57:14;1.75;;;1.60;;
9445;SDS011;4761;49.490;10.908;2022-10-17T07:59:39;1.90;;;1.80;;
9445;SDS011;4761;49.490;10.908;2022-10-17T08:02:05;4.47;;;2.40;;
9445;SDS011;4761;49.490;10.908;2022-10-17T08:04:33;2.42;;;2.08;;
9445;SDS011;4761;49.490;10.908;2022-10-17T08:07:00;2.28;;;2.00;;
9445;SDS011;4761;49.490;10.908;2022-10-17T08:09:26;2.67;;;1.90;;
9445;SDS011;4761;49.490;10.908;2022-10-17T08:11:52;3.13;;;2.35;;
9445;SDS011;4761;49.490;10.908;2022-10-17T08:14:18;2.58;;;1.83;;
9445;SDS011;4761;49.490;10.908;2022-10-17T08:16:43;2.30;;;2.10;;
9445;SDS011;4761;49.490;10.908;2022-10-17T08:19:09;2.28;;;2.08;;
9445;SDS011;4761;49.490;10.908;2022-10-17T08:21:35;3.73;;;1.80;;
9445;SDS011;4761;49.490;10.908;2022-10-17T08:24:01;2.85;;;2.10;;
9445;SDS011;4761;49.490;10.908;2022-10-17T08:26:27;2.95;;;2.10;;
9445;SDS011;4761;49.490;10.908;2022-10-17T08:28:53;2.10;;;1.90;;
9445;SDS011;4761;49.490;10.908;2022-10-17T08:31:18;2.13;;;1.97;;
9445;SDS011;4761;49.490;10.908;2022-10-17T08:33:45;2.07;;;1.87;;
9445;SDS011;4761;49.490;10.908;2022-10-17T08:36:13;2.30;;;2.10;;
9445;SDS011;4761;49.490;10.908;2022-10-17T08:38:40;2.97;;;2.20;;
9445;SDS011;4761;49.490;10.908;2022-10-17T08:41:14;2.30;;;2.10;;
9445;SDS011;4761;49.490;10.908;2022-10-17T08:46:43;3.67;;;2.00;;
9445;SDS011;4761;49.490;10.908;2022-10-17T08:49:14;2.03;;;1.90;;
9445;SDS011;4761;49.490;10.908;2022-10-17T08:51:51;4.87;;;2.20;;
9445;SDS011;4761;49.490;10.908;2022-10-17T08:54:30;1.80;;;1.70;;
9445;SDS011;4761;49.490;10.908;2022-10-17T08:57:11;2.10;;;1.87;;
9445;SDS011;4761;49.490;10.908;2022-10-17T08:59:38;2.43;;;2.17;;
9445;SDS011;4761;49.490;10.908;2022-10-17T09:07:24;2.53;;;2.17;;
9445;SDS011;4761;49.490;10.908;2022-10-17T09:12:39;2.33;;;2.03;;
9445;SDS011;4761;49.490;10.908;2022-10-17T09:18:10;2.90;;;1.60;;
9445;SDS011;4761;49.490;10.908;2022-10-17T09:20:50;5.53;;;2.40;;
9445;SDS011;4761;49.490;10.908;2022-10-17T09:23:22;7.47;;;2.10;;
9445;SDS011;4761;49.490;10.908;2022-10-17T09:25:52;11.63;;;2.37;;
9445;SDS011;4761;49.490;10.908;2022-10-17T09:31:03;6.75;;;1.92;;
9445;SDS011;4761;49.490;10.908;2022-10-17T09:33:49;7.50;;;2.10;;
9445;SDS011;4761;49.490;10.908;2022-10-17T09:36:17;5.73;;;2.37;;
9445;SDS011;4761;49.490;10.908;2022-10-17T09:39:04;6.50;;;2.60;;
9445;SDS011;4761;49.490;10.908;2022-10-17T09:41:35;5.03;;;1.90;;
9445;SDS011;4761;49.490;10.908;2022-10-17T09:44:12;3.42;;;2.50;;
9445;SDS011;4761;49.490;10.908;2022-10-17T09:46:40;6.10;;;2.40;;
9445;SDS011;4761;49.490;10.908;2022-10-17T09:49:14;4.70;;;2.20;;
9445;SDS011;4761;49.490;10.908;2022-10-17T09:51:43;4.85;;;2.28;;
9445;SDS011;4761;49.490;10.908;2022-10-17T09:54:23;3.90;;;2.47;;
9445;SDS011;4761;49.490;10.908;2022-10-17T09:57:01;3.80;;;2.00;;
9445;SDS011;4761;49.490;10.908;2022-10-17T10:04:52;2.73;;;2.13;;
9445;SDS011;4761;49.490;10.908;2022-10-17T10:07:24;5.20;;;2.23;;
9445;SDS011;4761;49.490;10.908;2022-10-17T10:09:51;2.50;;;2.03;;
9445;SDS011;4761;49.490;10.908;2022-10-17T10:12:25;2.10;;;1.90;;
9445;SDS011;4761;49.490;10.908;2022-10-17T10:14:52;4.13;;;2.20;;
9445;SDS011;4761;49.490;10.908;2022-10-17T10:17:28;3.08;;;2.10;;
9445;SDS011;4761;49.490;10.908;2022-10-17T10:23:05;2.45;;;1.98;;
9445;SDS011;4761;49.490;10.908;2022-10-17T10:25:56;2.45;;;2.13;;
9445;SDS011;4761;49.490;10.908;2022-10-17T10:28:30;6.18;;;1.90;;
9445;SDS011;4761;49.490;10.908;2022-10-17T10:30:58;2.55;;;2.05;;
9445;SDS011;4761;49.490;10.908;2022-10-17T10:33:29;3.80;;;2.13;;
9445;SDS011;4761;49.490;10.908;2022-10-17T10:35:59;2.20;;;2.00;;
9445;SDS011;4761;49.490;10.908;2022-10-17T10:38:27;2.80;;;1.80;;
9445;SDS011;4761;49.490;10.908;2022-10-17T10:40:55;2.72;;;1.98;;
9445;SDS011;4761;49.490;10.908;2022-10-17T10:45:57;2.40;;;1.73;;
9445;SDS011;4761;49.490;10.908;2022-10-17T10:48:29;2.20;;;2.00;;
9445;SDS011;4761;49.490;10.908;2022-10-17T10:50:57;3.75;;;1.83;;
9445;SDS011;4761;49.490;10.908;2022-10-17T10:56:48;1.95;;;1.73;;
9445;SDS011;4761;49.490;10.908;2022-10-17T10:59:19;3.83;;;1.77;;
9445;SDS011;4761;49.490;10.908;2022-10-17T11:01:53;2.58;;;2.13;;
9445;SDS011;4761;49.490;10.908;2022-10-17T11:07:08;2.00;;;1.90;;
9445;SDS011;4761;49.490;10.908;2022-10-17T11:12:24;4.28;;;2.15;;
9445;SDS011;4761;49.490;10.908;2022-10-17T11:17:42;3.00;;;2.10;;
9445;SDS011;4761;49.490;10.908;2022-10-17T11:20:19;2.83;;;2.10;;
9445;SDS011;4761;49.490;10.908;2022-10-17T11:23:12;3.20;;;2.65;;
9445;SDS011;4761;49.490;10.908;2022-10-17T11:25:51;3.90;;;2.25;;
9445;SDS011;4761;49.490;10.908;2022-10-17T11:28:19;2.60;;;2.28;;
9445;SDS011;4761;49.490;10.908;2022-10-17T11:33:29;3.13;;;2.83;;
9445;SDS011;4761;49.490;10.908;2022-10-17T11:36:00;3.05;;;2.33;;
9445;SDS011;4761;49.490;10.908;2022-10-17T11:41:03;2.67;;;2.05;;
9445;SDS011;4761;49.490;10.908;2022-10-17T11:43:39;4.72;;;2.85;;
9445;SDS011;4761;49.490;10.908;2022-10-17T11:46:14;3.88;;;2.65;;
9445;SDS011;4761;49.490;10.908;2022-10-17T11:51:23;6.45;;;2.38;;
9445;SDS011;4761;49.490;10.908;2022-10-17T11:56:24;2.88;;;2.45;;
9445;SDS011;4761;49.490;10.908;2022-10-17T11:59:11;3.50;;;2.80;;
9445;SDS011;4761;49.490;10.908;2022-10-17T12:02:01;4.28;;;2.75;;
9445;SDS011;4761;49.490;10.908;2022-10-17T12:07:19;3.42;;;2.88;;
9445;SDS011;4761;49.490;10.908;2022-10-17T12:09:53;3.58;;;3.08;;
9445;SDS011;4761;49.490;10.908;2022-10-17T12:12:40;5.22;;;3.47;;
9445;SDS011;4761;49.490;10.908;2022-10-17T12:17:41;5.88;;;3.80;;
9445;SDS011;4761;49.490;10.908;2022-10-17T12:20:16;4.18;;;3.42;;
9445;SDS011;4761;49.490;10.908;2022-10-17T12:22:49;3.42;;;3.10;;
9445;SDS011;4761;49.490;10.908;2022-10-17T12:25:18;4.53;;;3.47;;
9445;SDS011;4761;49.490;10.908;2022-10-17T12:30:31;3.95;;;3.13;;
9445;SDS011;4761;49.490;10.908;2022-10-17T12:32:59;4.07;;;3.22;;
9445;SDS011;4761;49.490;10.908;2022-10-17T12:35:30;3.25;;;2.85;;
9445;SDS011;4761;49.490;10.908;2022-10-17T12:38:39;3.85;;;3.50;;
9445;SDS011;4761;49.490;10.908;2022-10-17T12:40:47;3.83;;;3.13;;
9445;SDS011;4761;49.490;10.908;2022-10-17T12:45:45;3.20;;;2.85;;
9445;SDS011;4761;49.490;10.908;2022-10-17T12:53:25;3.42;;;2.78;;
9445;SDS011;4761;49.490;10.908;2022-10-17T12:56:13;5.05;;;2.88;;
9445;SDS011;4761;49.490;10.908;2022-10-17T12:58:42;2.45;;;2.25;;
9445;SDS011;4761;49.490;10.908;2022-10-17T13:01:14;3.60;;;2.50;;
9445;SDS011;4761;49.490;10.908;2022-10-17T13:03:43;2.55;;;2.35;;
9445;SDS011;4761;49.490;10.908;2022-10-17T13:06:17;3.45;;;2.63;;
9445;SDS011;4761;49.490;10.908;2022-10-17T13:08:46;2.72;;;2.50;;
9445;SDS011;4761;49.490;10.908;2022-10-17T13:11:21;4.28;;;2.63;;
9445;SDS011;4761;49.490;10.908;2022-10-17T13:13:51;2.38;;;2.17;;
9445;SDS011;4761;49.490;10.908;2022-10-17T13:16:29;6.68;;;2.40;;
9445;SDS011;4761;49.490;10.908;2022-10-17T13:19:01;16.85;;;2.78;;
9445;SDS011;4761;49.490;10.908;2022-10-17T13:21:28;13.52;;;2.97;;
9445;SDS011;4761;49.490;10.908;2022-10-17T13:23:54;18.38;;;3.90;;
9445;SDS011;4761;49.490;10.908;2022-10-17T13:29:08;9.63;;;2.47;;
9445;SDS011;4761;49.490;10.908;2022-10-17T13:31:39;6.38;;;2.40;;
9445;SDS011;4761;49.490;10.908;2022-10-17T13:34:17;11.30;;;2.47;;
9445;SDS011;4761;49.490;10.908;2022-10-17T13:36:47;10.18;;;2.55;;
9445;SDS011;4761;49.490;10.908;2022-10-17T13:39:19;7.35;;;2.17;;
9445;SDS011;4761;49.490;10.908;2022-10-17T13:41:46;7.80;;;2.65;;
9445;SDS011;4761;49.490;10.908;2022-10-17T13:44:13;6.90;;;2.10;;
9445;SDS011;4761;49.490;10.908;2022-10-17T13:46:43;4.88;;;1.90;;
9445;SDS011;4761;49.490;10.908;2022-10-17T13:49:54;3.58;;;1.83;;
9445;SDS011;4761;49.490;10.908;2022-10-17T13:51:59;5.63;;;1.95;;
9445;SDS011;4761;49.490;10.908;2022-10-17T13:56:57;5.07;;;1.80;;
9445;SDS011;4761;49.490;10.908;2022-10-17T13:59:24;7.95;;;2.10;;
9445;SDS011;4761;49.490;10.908;2022-10-17T14:01:57;4.22;;;1.60;;
9445;SDS011;4761;49.490;10.908;2022-10-17T14:04:25;4.15;;;1.85;;
9445;SDS011;4761;49.490;10.908;2022-10-17T14:06:51;4.80;;;1.90;;
9445;SDS011;4761;49.490;10.908;2022-10-17T14:09:24;3.78;;;1.63;;
9445;SDS011;4761;49.490;10.908;2022-10-17T14:12:02;2.80;;;1.50;;
9445;SDS011;4761;49.490;10.908;2022-10-17T14:14:36;3.47;;;1.70;;
9445;SDS011;4761;49.490;10.908;2022-10-17T14:17:11;2.95;;;1.60;;
9445;SDS011;4761;49.490;10.908;2022-10-17T14:19:51;2.65;;;1.50;;
9445;SDS011;4761;49.490;10.908;2022-10-17T14:24:50;3.72;;;1.65;;
9445;SDS011;4761;49.490;10.908;2022-10-17T14:27:25;2.85;;;1.65;;
9445;SDS011;4761;49.490;10.908;2022-10-17T14:29:56;3.75;;;1.77;;
9445;SDS011;4761;49.490;10.908;2022-10-17T14:32:25;2.25;;;1.35;;
9445;SDS011;4761;49.490;10.908;2022-10-17T14:34:53;2.10;;;1.60;;
9445;SDS011;4761;49.490;10.908;2022-10-17T14:37:41;4.57;;;1.70;;
9445;SDS011;4761;49.490;10.908;2022-10-17T14:40:16;4.45;;;1.70;;
9445;SDS011;4761;49.490;10.908;2022-10-17T14:42:43;1.60;;;1.50;;
9445;SDS011;4761;49.490;10.908;2022-10-17T14:45:26;2.13;;;1.52;;
9445;SDS011;4761;49.490;10.908;2022-10-17T14:47:55;1.70;;;1.48;;
9445;SDS011;4761;49.490;10.908;2022-10-17T14:50:26;3.90;;;1.73;;
9445;SDS011;4761;49.490;10.908;2022-10-17T14:55:25;3.78;;;1.92;;
9445;SDS011;4761;49.490;10.908;2022-10-17T14:57:52;2.65;;;1.52;;
9445;SDS011;4761;49.490;10.908;2022-10-17T15:00:19;3.28;;;1.70;;
9445;SDS011;4761;49.490;10.908;2022-10-17T15:02:46;4.75;;;1.80;;
9445;SDS011;4761;49.490;10.908;2022-10-17T15:05:13;3.15;;;2.22;;
9445;SDS011;4761;49.490;10.908;2022-10-17T15:07:39;3.20;;;2.33;;
9445;SDS011;4761;49.490;10.908;2022-10-17T15:10:20;2.47;;;1.98;;
9445;SDS011;4761;49.490;10.908;2022-10-17T15:12:52;3.95;;;2.40;;
9445;SDS011;4761;49.490;10.908;2022-10-17T15:15:18;2.88;;;2.30;;
9445;SDS011;4761;49.490;10.908;2022-10-17T15:17:43;5.28;;;2.85;;
9445;SDS011;4761;49.490;10.908;2022-10-17T15:20:13;6.57;;;2.50;;
9445;SDS011;4761;49.490;10.908;2022-10-17T15:22:41;6.25;;;2.70;;
9445;SDS011;4761;49.490;10.908;2022-10-17T15:25:06;4.10;;;2.75;;
9445;SDS011;4761;49.490;10.908;2022-10-17T15:27:32;4.35;;;2.75;;
9445;SDS011;4761;49.490;10.908;2022-10-17T15:29:58;6.70;;;3.05;;
9445;SDS011;4761;49.490;10.908;2022-10-17T15:32:23;5.60;;;2.97;;
9445;SDS011;4761;49.490;10.908;2022-10-17T15:34:49;8.38;;;2.95;;
9445;SDS011;4761;49.490;10.908;2022-10-17T15:37:16;6.18;;;3.25;;
9445;SDS011;4761;49.490;10.908;2022-10-17T15:39:48;5.57;;;3.40;;
9445;SDS011;4761;49.490;10.908;2022-10-17T15:42:17;6.90;;;3.42;;
9445;SDS011;4761;49.490;10.908;2022-10-17T15:44:43;6.57;;;3.88;;
9445;SDS011;4761;49.490;10.908;2022-10-17T15:47:17;5.72;;;3.97;;
9445;SDS011;4761;49.490;10.908;2022-10-17T15:49:57;5.60;;;4.00;;
9445;SDS011;4761;49.490;10.908;2022-10-17T15:52:24;7.28;;;4.90;;
9445;SDS011;4761;49.490;10.908;2022-10-17T15:54:49;7.07;;;5.22;;
9445;SDS011;4761;49.490;10.908;2022-10-17T15:57:20;7.57;;;5.03;;
9445;SDS011;4761;49.490;10.908;2022-10-17T15:59:51;20.85;;;5.57;;
9445;SDS011;4761;49.490;10.908;2022-10-17T16:02:18;14.43;;;2.60;;
9445;SDS011;4761;49.490;10.908;2022-10-17T16:04:46;22.95;;;3.50;;
9445;SDS011;4761;49.490;10.908;2022-10-17T16:07:13;13.20;;;2.13;;
9445;SDS011;4761;49.490;10.908;2022-10-17T16:09:38;8.52;;;2.35;;
9445;SDS011;4761;49.490;10.908;2022-10-17T16:12:05;8.65;;;2.03;;
9445;SDS011;4761;49.490;10.908;2022-10-17T16:14:35;13.23;;;2.53;;
9445;SDS011;4761;49.490;10.908;2022-10-17T16:17:00;5.82;;;1.83;;
9445;SDS011;4761;49.490;10.908;2022-10-17T16:19:26;9.50;;;2.60;;
9445;SDS011;4761;49.490;10.908;2022-10-17T16:21:54;4.65;;;1.98;;
9445;SDS011;4761;49.490;10.908;2022-10-17T16:24:21;7.68;;;2.15;;
9445;SDS011;4761;49.490;10.908;2022-10-17T16:26:47;5.30;;;1.90;;
9445;SDS011;4761;49.490;10.908;2022-10-17T16:29:13;7.18;;;2.35;;
9445;SDS011;4761;49.490;10.908;2022-10-17T16:31:41;3.60;;;2.00;;
9445;SDS011;4761;49.490;10.908;2022-10-17T16:34:08;9.10;;;2.17;;
9445;SDS011;4761;49.490;10.908;2022-10-17T16:36:35;6.53;;;2.33;;
9445;SDS011;4761;49.490;10.908;2022-10-17T16:39:01;6.88;;;2.13;;
9445;SDS011;4761;49.490;10.908;2022-10-17T16:41:27;4.60;;;1.95;;
9445;SDS011;4761;49.490;10.908;2022-10-17T16:43:53;3.75;;;2.08;;
9445;SDS011;4761;49.490;10.908;2022-10-17T16:46:20;3.35;;;1.92;;
9445;SDS011;4761;49.490;10.908;2022-10-17T16:48:47;3.38;;;1.67;;
9445;SDS011;4761;49.490;10.908;2022-10-17T16:51:13;6.00;;;2.00;;
9445;SDS011;4761;49.490;10.908;2022-10-17T16:53:39;3.42;;;1.88;;
9445;SDS011;4761;49.490;10.908;2022-10-17T16:56:08;4.03;;;1.90;;
9445;SDS011;4761;49.490;10.908;2022-10-17T16:58:35;3.45;;;1.95;;
9445;SDS011;4761;49.490;10.908;2022-10-17T17:01:02;4.85;;;1.85;;